sensor_id;sensor_type;location;lat;lon;timestamp;pressure;altitude;pressure_sealevel;temperature;humidity
42621;BME280;28252;53.336;-6.298;2023-12-22T00:01:31;100790.72;;;19.31;100.00
42621;BME280;28252;53.336;-6.298;2023-12-22T00:02:02;100795.28;;;19.31;100.00
42621;BME280;28252;53.336;-6.298;2023-12-22T00:02:33;100788.00;;;19.31;100.00
42621;BME280;28252;53.336;-6.298;2023-12-22T00:03:12;100788.31;;;19.28;100.00
42621;BME280;28252;53.336;-6.298;2023-12-22T00:03:46;100792.88;;;19.28;100.00
42621;BME280;28252;53.336;-6.298;2023-12-22T00:04:18;100793.72;;;19.28;100.00
42621;BME280;28252;53.336;-6.298;2023-12-22T00:04:51;100795.59;;;19.28;100.00
42621;BME280;28252;53.336;-6.298;2023-12-22T00:05:28;100789.31;;;19.27;100.00
42621;BME280;28252;53.336;-6.298;2023-12-22T00:06:03;100783.06;;;19.27;100.00
42621;BME280;28252;53.336;-6.298;2023-12-22T00:06:37;100785.78;;;19.27;100.00
42621;BME280;28252;53.336;-6.298;2023-12-22T00:07:11;100792.19;;;19.26;100.00
42621;BME280;28252;53.336;-6.298;2023-12-22T00:07:47;100784.06;;;19.26;100.00
42621;BME280;28252;53.336;-6.298;2023-12-22T00:08:18;100780.53;;;19.25;100.00
42621;BME280;28252;53.336;-6.298;2023-12-22T00:08:54;100777.00;;;19.25;100.00
42621;BME280;28252;53.336;-6.298;2023-12-22T00:09:31;100777.00;;;19.25;100.00
42621;BME280;28252;53.336;-6.298;2023-12-22T00:10:06;100779.03;;;19.22;100.00
42621;BME280;28252;53.336;-6.298;2023-12-22T00:10:40;100773.63;;;19.22;100.00
42621;BME280;28252;53.336;-6.298;2023-12-22T00:11:16;100782.72;;;19.21;100.00
42621;BME280;28252;53.336;-6.298;2023-12-22T00:11:47;100783.41;;;19.23;100.00
42621;BME280;28252;53.336;-6.298;2023-12-22T00:12:26;100779.84;;;19.23;100.00
42621;BME280;28252;53.336;-6.298;2023-12-22T00:13:02;100782.72;;;19.21;100.00
42621;BME280;28252;53.336;-6.298;2023-12-22T00:13:36;100793.53;;;19.21;100.00
42621;BME280;28252;53.336;-6.298;2023-12-22T00:14:12;100782.72;;;19.21;100.00
42621;BME280;28252;53.336;-6.298;2023-12-22T00:14:43;100783.72;;;19.20;100.00
42621;BME280;28252;53.336;-6.298;2023-12-22T00:15:18;100782.03;;;19.19;100.00
42621;BME280;28252;53.336;-6.298;2023-12-22T00:16:36;100785.72;;;19.18;100.00
42621;BME280;28252;53.336;-6.298;2023-12-22T00:17:09;100783.91;;;19.19;100.00
42621;BME280;28252;53.336;-6.298;2023-12-22T00:17:42;100783.03;;;19.18;100.00
42621;BME280;28252;53.336;-6.298;2023-12-22T00:18:16;100785.72;;;19.18;100.00
42621;BME280;28252;53.336;-6.298;2023-12-22T00:18:49;100784.75;;;19.19;100.00
42621;BME280;28252;53.336;-6.298;2023-12-22T00:19:22;100781.19;;;19.19;100.00
42621;BME280;28252;53.336;-6.298;2023-12-22T00:19:56;100773.25;;;19.17;100.00
42621;BME280;28252;53.336;-6.298;2023-12-22T00:20:32;100788.44;;;19.18;100.00
42621;BME280;28252;53.336;-6.298;2023-12-22T00:21:07;100770.56;;;19.17;100.00
42621;BME280;28252;53.336;-6.298;2023-12-22T00:21:39;100763.31;;;19.18;100.00
42621;BME280;28252;53.336;-6.298;2023-12-22T00:22:15;100778.50;;;19.19;100.00
42621;BME280;28252;53.336;-6.298;2023-12-22T00:22:51;100778.66;;;19.17;100.00
42621;BME280;28252;53.336;-6.298;2023-12-22T00:23:25;100761.75;;;19.15;100.00
42621;BME280;28252;53.336;-6.298;2023-12-22T00:23:57;100771.56;;;19.16;100.00
42621;BME280;28252;53.336;-6.298;2023-12-22T00:24:35;100770.88;;;19.14;100.00
42621;BME280;28252;53.336;-6.298;2023-12-22T00:25:08;100778.97;;;19.14;100.00
42621;BME280;28252;53.336;-6.298;2023-12-22T00:25:40;100778.16;;;19.14;100.00
42621;BME280;28252;53.336;-6.298;2023-12-22T00:26:13;100776.28;;;19.14;100.00
42621;BME280;28252;53.336;-6.298;2023-12-22T00:26:47;100758.38;;;19.13;100.00
42621;BME280;28252;53.336;-6.298;2023-12-22T00:27:20;100767.50;;;19.12;100.00
42621;BME280;28252;53.336;-6.298;2023-12-22T00:27:54;100767.50;;;19.12;100.00
42621;BME280;28252;53.336;-6.298;2023-12-22T00:28:25;100770.19;;;19.12;100.00
42621;BME280;28252;53.336;-6.298;2023-12-22T00:28:59;100762.09;;;19.12;100.00
42621;BME280;28252;53.336;-6.298;2023-12-22T00:29:35;100764.09;;;19.10;100.00
42621;BME280;28252;53.336;-6.298;2023-12-22T00:30:09;100770.53;;;19.09;100.00
42621;BME280;28252;53.336;-6.298;2023-12-22T00:30:42;100760.56;;;19.10;100.00
42621;BME280;28252;53.336;-6.298;2023-12-22T00:31:13;100766.78;;;19.10;100.00
42621;BME280;28252;53.336;-6.298;2023-12-22T00:31:52;100759.72;;;19.09;100.00
42621;BME280;28252;53.336;-6.298;2023-12-22T00:32:23;100765.13;;;19.09;100.00
42621;BME280;28252;53.336;-6.298;2023-12-22T00:32:59;100762.41;;;19.09;100.00
42621;BME280;28252;53.336;-6.298;2023-12-22T00:33:30;100774.88;;;19.10;100.00
42621;BME280;28252;53.336;-6.298;2023-12-22T00:34:07;100771.34;;;19.10;100.00
42621;BME280;28252;53.336;-6.298;2023-12-22T00:34:38;100765.97;;;19.10;100.00
42621;BME280;28252;53.336;-6.298;2023-12-22T00:35:09;100770.53;;;19.09;100.00
42621;BME280;28252;53.336;-6.298;2023-12-22T00:35:45;100773.22;;;19.09;100.00
42621;BME280;28252;53.336;-6.298;2023-12-22T00:36:16;100769.50;;;19.10;100.00
42621;BME280;28252;53.336;-6.298;2023-12-22T00:36:55;100777.59;;;19.10;100.00
42621;BME280;28252;53.336;-6.298;2023-12-22T00:37:29;100797.50;;;19.09;100.00
42621;BME280;28252;53.336;-6.298;2023-12-22T00:38:02;100760.72;;;19.08;100.00
42621;BME280;28252;53.336;-6.298;2023-12-22T00:38:36;100765.13;;;19.09;100.00
42621;BME280;28252;53.336;-6.298;2023-12-22T00:39:09;100765.13;;;19.09;100.00
42621;BME280;28252;53.336;-6.298;2023-12-22T00:39:40;100757.19;;;19.08;100.00
42621;BME280;28252;53.336;-6.298;2023-12-22T00:40:12;100772.53;;;19.07;100.00
42621;BME280;28252;53.336;-6.298;2023-12-22T00:40:48;100763.56;;;19.07;100.00
42621;BME280;28252;53.336;-6.298;2023-12-22T00:41:22;100768.81;;;19.08;100.00
42621;BME280;28252;53.336;-6.298;2023-12-22T00:41:56;100776.22;;;19.06;100.00
42621;BME280;28252;53.336;-6.298;2023-12-22T00:42:28;100770.84;;;19.06;100.00
42621;BME280;28252;53.336;-6.298;2023-12-22T00:43:01;100769.13;;;19.05;100.00
42621;BME280;28252;53.336;-6.298;2023-12-22T00:43:33;100770.00;;;19.06;100.00
42621;BME280;28252;53.336;-6.298;2023-12-22T00:45:24;100766.63;;;19.03;100.00
42621;BME280;28252;53.336;-6.298;2023-12-22T00:45:55;100772.03;;;19.03;100.00
42621;BME280;28252;53.336;-6.298;2023-12-22T00:46:31;100776.53;;;19.03;100.00
42621;BME280;28252;53.336;-6.298;2023-12-22T00:47:04;100764.91;;;19.02;100.00
42621;BME280;28252;53.336;-6.298;2023-12-22T00:47:36;100773.00;;;19.02;100.00
42621;BME280;28252;53.336;-6.298;2023-12-22T00:48:10;100774.00;;;19.01;100.00
42621;BME280;28252;53.336;-6.298;2023-12-22T00:48:43;100772.34;;;19.00;100.00
42621;BME280;28252;53.336;-6.298;2023-12-22T00:49:14;100780.44;;;19.00;100.00
42621;BME280;28252;53.336;-6.298;2023-12-22T00:49:46;100782.09;;;19.01;100.00
42621;BME280;28252;53.336;-6.298;2023-12-22T00:50:17;100771.47;;;19.00;100.00
42621;BME280;28252;53.336;-6.298;2023-12-22T00:50:48;100778.56;;;19.01;100.00
42621;BME280;28252;53.336;-6.298;2023-12-22T00:51:19;100775.19;;;18.99;100.00
42621;BME280;28252;53.336;-6.298;2023-12-22T00:51:50;100776.03;;;18.99;100.00
42621;BME280;28252;53.336;-6.298;2023-12-22T00:52:23;100785.97;;;18.99;100.00
42621;BME280;28252;53.336;-6.298;2023-12-22T00:52:56;100776.84;;;19.00;100.00
42621;BME280;28252;53.336;-6.298;2023-12-22T00:53:30;100776.19;;;18.98;100.00
42621;BME280;28252;53.336;-6.298;2023-12-22T00:54:04;100776.19;;;18.98;100.00
42621;BME280;28252;53.336;-6.298;2023-12-22T00:54:35;100781.59;;;18.98;100.00
42621;BME280;28252;53.336;-6.298;2023-12-22T00:55:06;100780.59;;;18.99;100.00
42621;BME280;28252;53.336;-6.298;2023-12-22T00:55:40;100789.69;;;18.98;100.00
42621;BME280;28252;53.336;-6.298;2023-12-22T00:56:14;100784.28;;;18.98;100.00
42621;BME280;28252;53.336;-6.298;2023-12-22T00:56:45;100773.47;;;18.98;100.00
42621;BME280;28252;53.336;-6.298;2023-12-22T00:57:18;100773.63;;;18.96;100.00
42621;BME280;28252;53.336;-6.298;2023-12-22T00:57:49;100770.94;;;18.96;100.00
42621;BME280;28252;53.336;-6.298;2023-12-22T00:58:20;100772.81;;;18.96;100.00
42621;BME280;28252;53.336;-6.298;2023-12-22T00:58:55;100771.81;;;18.97;100.00
42621;BME280;28252;53.336;-6.298;2023-12-22T00:59:31;100770.94;;;18.96;100.00
42621;BME280;28252;53.336;-6.298;2023-12-22T01:00:02;100775.50;;;18.96;100.00
42621;BME280;28252;53.336;-6.298;2023-12-22T01:00:35;100776.19;;;18.98;100.00
42621;BME280;28252;53.336;-6.298;2023-12-22T01:01:08;100777.38;;;18.95;100.00
42621;BME280;28252;53.336;-6.298;2023-12-22T01:01:40;100776.50;;;18.95;100.00
42621;BME280;28252;53.336;-6.298;2023-12-22T01:05:51;100766.72;;;18.94;100.00
42621;BME280;28252;53.336;-6.298;2023-12-22T01:06:25;100758.78;;;18.92;100.00
42621;BME280;28252;53.336;-6.298;2023-12-22T01:06:58;100767.72;;;18.93;100.00
42621;BME280;28252;53.336;-6.298;2023-12-22T01:07:29;100764.19;;;18.92;100.00
42621;BME280;28252;53.336;-6.298;2023-12-22T01:08:03;100761.63;;;18.91;100.00
42621;BME280;28252;53.336;-6.298;2023-12-22T01:08:37;100755.25;;;18.92;100.00
42621;BME280;28252;53.336;-6.298;2023-12-22T01:09:13;100761.81;;;18.89;100.00
42621;BME280;28252;53.336;-6.298;2023-12-22T01:09:47;100761.63;;;18.91;100.00
42621;BME280;28252;53.336;-6.298;2023-12-22T01:10:20;100763.50;;;18.90;100.00
42621;BME280;28252;53.336;-6.298;2023-12-22T01:10:51;100757.25;;;18.90;100.00
42621;BME280;28252;53.336;-6.298;2023-12-22T01:11:25;100771.59;;;18.90;100.00
42621;BME280;28252;53.336;-6.298;2023-12-22T01:12:00;100770.72;;;18.90;100.00
42621;BME280;28252;53.336;-6.298;2023-12-22T01:12:37;100769.91;;;18.89;100.00
42621;BME280;28252;53.336;-6.298;2023-12-22T01:13:08;100775.28;;;18.89;100.00
42621;BME280;28252;53.336;-6.298;2023-12-22T01:13:44;100775.28;;;18.89;100.00
42621;BME280;28252;53.336;-6.298;2023-12-22T01:14:17;100765.34;;;18.90;100.00
42621;BME280;28252;53.336;-6.298;2023-12-22T01:14:48;100759.09;;;18.89;100.00
42621;BME280;28252;53.336;-6.298;2023-12-22T01:15:25;100772.75;;;18.88;100.00
42621;BME280;28252;53.336;-6.298;2023-12-22T01:15:56;100765.34;;;18.90;100.00
42621;BME280;28252;53.336;-6.298;2023-12-22T01:16:30;100758.09;;;18.90;100.00
42621;BME280;28252;53.336;-6.298;2023-12-22T01:17:01;100768.91;;;18.90;100.00
42621;BME280;28252;53.336;-6.298;2023-12-22T01:17:34;100773.44;;;18.90;100.00
42621;BME280;28252;53.336;-6.298;2023-12-22T01:18:10;100762.63;;;18.90;100.00
42621;BME280;28252;53.336;-6.298;2023-12-22T01:18:44;100763.66;;;18.89;100.00
42621;BME280;28252;53.336;-6.298;2023-12-22T01:19:21;100774.47;;;18.89;100.00
42621;BME280;28252;53.336;-6.298;2023-12-22T01:19:54;100770.88;;;18.88;100.00
42621;BME280;28252;53.336;-6.298;2023-12-22T01:20:27;100745.75;;;18.88;100.00
42621;BME280;28252;53.336;-6.298;2023-12-22T01:21:01;100760.28;;;18.87;100.00
42621;BME280;28252;53.336;-6.298;2023-12-22T01:21:34;100760.28;;;18.87;100.00
42621;BME280;28252;53.336;-6.298;2023-12-22T01:22:08;100765.69;;;18.87;100.00
42621;BME280;28252;53.336;-6.298;2023-12-22T01:22:39;100760.28;;;18.87;100.00
42621;BME280;28252;53.336;-6.298;2023-12-22T01:23:15;100754.88;;;18.87;100.00
42621;BME280;28252;53.336;-6.298;2023-12-22T01:23:49;100754.03;;;18.86;100.00
42621;BME280;28252;53.336;-6.298;2023-12-22T01:24:22;100756.88;;;18.84;100.00
42621;BME280;28252;53.336;-6.298;2023-12-22T01:24:56;100759.56;;;18.84;100.00
42621;BME280;28252;53.336;-6.298;2023-12-22T01:25:32;100757.75;;;18.85;100.00
42621;BME280;28252;53.336;-6.298;2023-12-22T01:26:05;100756.88;;;18.84;100.00
42621;BME280;28252;53.336;-6.298;2023-12-22T01:26:36;100749.81;;;18.83;100.00
42621;BME280;28252;53.336;-6.298;2023-12-22T01:27:08;100757.75;;;18.85;100.00
42621;BME280;28252;53.336;-6.298;2023-12-22T01:27:42;100755.19;;;18.83;100.00
42621;BME280;28252;53.336;-6.298;2023-12-22T01:28:13;100764.97;;;18.84;100.00
42621;BME280;28252;53.336;-6.298;2023-12-22T01:28:45;100756.88;;;18.84;100.00
42621;BME280;28252;53.336;-6.298;2023-12-22T01:29:16;100742.53;;;18.84;100.00
42621;BME280;28252;53.336;-6.298;2023-12-22T01:29:54;100748.09;;;18.82;100.00
42621;BME280;28252;53.336;-6.298;2023-12-22T01:30:29;100753.50;;;18.82;100.00
42621;BME280;28252;53.336;-6.298;2023-12-22T01:31:01;100755.19;;;18.83;100.00
42621;BME280;28252;53.336;-6.298;2023-12-22T01:31:34;100758.91;;;18.82;100.00
42621;BME280;28252;53.336;-6.298;2023-12-22T01:32:07;100752.63;;;18.82;100.00
42621;BME280;28252;53.336;-6.298;2023-12-22T01:32:38;100750.91;;;18.81;100.00
42621;BME280;28252;53.336;-6.298;2023-12-22T01:33:14;100754.50;;;18.81;100.00
42621;BME280;28252;53.336;-6.298;2023-12-22T01:33:48;100753.78;;;18.79;100.00
42621;BME280;28252;53.336;-6.298;2023-12-22T01:34:22;100754.66;;;18.80;100.00
42621;BME280;28252;53.336;-6.298;2023-12-22T01:34:55;100758.34;;;18.79;100.00
42621;BME280;28252;53.336;-6.298;2023-12-22T01:35:32;100759.19;;;18.79;100.00
42621;BME280;28252;53.336;-6.298;2023-12-22T01:40:01;100748.72;;;18.76;100.00
42621;BME280;28252;53.336;-6.298;2023-12-22T01:40:35;100758.66;;;18.76;100.00
42621;BME280;28252;53.336;-6.298;2023-12-22T01:45:09;100754.44;;;18.73;100.00
42621;BME280;28252;53.336;-6.298;2023-12-22T01:45:41;100766.06;;;18.74;100.00
42621;BME280;28252;53.336;-6.298;2023-12-22T01:46:15;100752.72;;;18.72;100.00
42621;BME280;28252;53.336;-6.298;2023-12-22T01:46:47;100752.56;;;18.74;100.00
42621;BME280;28252;53.336;-6.298;2023-12-22T01:47:24;100751.75;;;18.73;100.00
42621;BME280;28252;53.336;-6.298;2023-12-22T01:47:56;100763.53;;;18.72;100.00
42621;BME280;28252;53.336;-6.298;2023-12-22T01:48:27;100758.13;;;18.72;100.00
42621;BME280;28252;53.336;-6.298;2023-12-22T01:49:00;100767.25;;;18.71;100.00
42621;BME280;28252;53.336;-6.298;2023-12-22T01:49:34;100751.06;;;18.71;100.00
42621;BME280;28252;53.336;-6.298;2023-12-22T01:50:05;100751.06;;;18.71;100.00
42621;BME280;28252;53.336;-6.298;2023-12-22T01:50:43;100761.84;;;18.71;100.00
42621;BME280;28252;53.336;-6.298;2023-12-22T01:51:23;100755.44;;;18.72;100.00
42621;BME280;28252;53.336;-6.298;2023-12-22T01:51:54;100749.34;;;18.70;100.00
42621;BME280;28252;53.336;-6.298;2023-12-22T01:52:29;100744.78;;;18.71;100.00
42621;BME280;28252;53.336;-6.298;2023-12-22T01:53:00;100746.66;;;18.70;100.00
42621;BME280;28252;53.336;-6.298;2023-12-22T01:53:37;100745.81;;;18.70;100.00
42621;BME280;28252;53.336;-6.298;2023-12-22T01:54:13;100749.34;;;18.70;100.00
42621;BME280;28252;53.336;-6.298;2023-12-22T01:54:49;100739.56;;;18.69;100.00
42621;BME280;28252;53.336;-6.298;2023-12-22T01:55:25;100758.28;;;18.71;100.00
42621;BME280;28252;53.336;-6.298;2023-12-22T01:56:01;100755.75;;;18.69;100.00
42621;BME280;28252;53.336;-6.298;2023-12-22T01:56:37;100759.31;;;18.70;100.00
42621;BME280;28252;53.336;-6.298;2023-12-22T01:57:13;100751.22;;;18.70;100.00
42621;BME280;28252;53.336;-6.298;2023-12-22T01:57:48;100747.66;;;18.69;100.00
42621;BME280;28252;53.336;-6.298;2023-12-22T01:58:22;100735.19;;;18.68;100.00
42621;BME280;28252;53.336;-6.298;2023-12-22T01:58:55;100763.00;;;18.69;100.00
42621;BME280;28252;53.336;-6.298;2023-12-22T01:59:33;100745.97;;;18.68;100.00
42621;BME280;28252;53.336;-6.298;2023-12-22T02:00:09;100745.97;;;18.68;100.00
42621;BME280;28252;53.336;-6.298;2023-12-22T02:00:43;100745.09;;;18.67;100.00
42621;BME280;28252;53.336;-6.298;2023-12-22T02:01:15;100756.91;;;18.66;100.00
42621;BME280;28252;53.336;-6.298;2023-12-22T02:01:46;100746.97;;;18.67;100.00
42621;BME280;28252;53.336;-6.298;2023-12-22T02:02:22;100759.63;;;18.66;100.00
42621;BME280;28252;53.336;-6.298;2023-12-22T02:02:54;100766.69;;;18.67;100.00
42621;BME280;28252;53.336;-6.298;2023-12-22T02:03:25;100759.63;;;18.66;100.00
42621;BME280;28252;53.336;-6.298;2023-12-22T02:04:00;100753.34;;;18.66;100.00
42621;BME280;28252;53.336;-6.298;2023-12-22T02:04:35;100753.34;;;18.66;100.00
42621;BME280;28252;53.336;-6.298;2023-12-22T02:05:06;100757.91;;;18.65;100.00
42621;BME280;28252;53.336;-6.298;2023-12-22T02:05:45;100746.13;;;18.66;100.00
42621;BME280;28252;53.336;-6.298;2023-12-22T02:06:16;100758.06;;;18.64;100.00
42621;BME280;28252;53.336;-6.298;2023-12-22T02:06:48;100760.75;;;18.64;100.00
42621;BME280;28252;53.336;-6.298;2023-12-22T02:07:24;100761.63;;;18.64;100.00
42621;BME280;28252;53.336;-6.298;2023-12-22T02:07:56;100760.75;;;18.64;100.00
42621;BME280;28252;53.336;-6.298;2023-12-22T02:08:27;100768.84;;;18.64;100.00
42621;BME280;28252;53.336;-6.298;2023-12-22T02:09:04;100764.47;;;18.63;100.00
42621;BME280;28252;53.336;-6.298;2023-12-22T02:09:37;100762.78;;;18.62;100.00
42621;BME280;28252;53.336;-6.298;2023-12-22T02:10:09;100763.63;;;18.62;100.00
42621;BME280;28252;53.336;-6.298;2023-12-22T02:10:44;100769.00;;;18.62;100.00
42621;BME280;28252;53.336;-6.298;2023-12-22T02:11:16;100760.09;;;18.62;100.00
42621;BME280;28252;53.336;-6.298;2023-12-22T02:11:52;100773.56;;;18.62;100.00
42621;BME280;28252;53.336;-6.298;2023-12-22T02:12:23;100766.16;;;18.64;100.00
42621;BME280;28252;53.336;-6.298;2023-12-22T02:12:56;100765.31;;;18.63;100.00
42621;BME280;28252;53.336;-6.298;2023-12-22T02:13:28;100762.63;;;18.63;100.00
42621;BME280;28252;53.336;-6.298;2023-12-22T02:14:04;100766.84;;;18.66;100.00
42621;BME280;28252;53.336;-6.298;2023-12-22T02:14:37;100761.63;;;18.64;100.00
42621;BME280;28252;53.336;-6.298;2023-12-22T02:15:11;100749.13;;;18.63;100.00
42621;BME280;28252;53.336;-6.298;2023-12-22T02:15:45;100759.78;;;18.65;100.00
42621;BME280;28252;53.336;-6.298;2023-12-22T02:16:19;100749.97;;;18.64;100.00
42621;BME280;28252;53.336;-6.298;2023-12-22T02:17:01;100763.31;;;18.65;100.00
42621;BME280;28252;53.336;-6.298;2023-12-22T02:22:14;100770.25;;;18.68;100.00
42621;BME280;28252;53.336;-6.298;2023-12-22T02:22:38;100740.56;;;18.68;100.00
42621;BME280;28252;53.336;-6.298;2023-12-22T02:23:11;100755.06;;;18.67;100.00
42621;BME280;28252;53.336;-6.298;2023-12-22T02:23:42;100755.91;;;18.67;100.00
42621;BME280;28252;53.336;-6.298;2023-12-22T02:24:16;100758.44;;;18.69;100.00
42621;BME280;28252;53.336;-6.298;2023-12-22T02:24:52;100735.03;;;18.70;100.00
42621;BME280;28252;53.336;-6.298;2023-12-22T02:25:26;100734.00;;;18.71;100.00
42621;BME280;28252;53.336;-6.298;2023-12-22T02:26:04;100743.94;;;18.70;100.00
42621;BME280;28252;53.336;-6.298;2023-12-22T02:26:41;100751.88;;;18.72;100.00
42621;BME280;28252;53.336;-6.298;2023-12-22T02:27:28;100759.16;;;18.71;100.00
42621;BME280;28252;53.336;-6.298;2023-12-22T02:28:09;100746.34;;;18.73;100.00
42621;BME280;28252;53.336;-6.298;2023-12-22T02:28:41;100749.88;;;18.74;100.00
42621;BME280;28252;53.336;-6.298;2023-12-22T02:29:14;100749.88;;;18.74;100.00
42621;BME280;28252;53.336;-6.298;2023-12-22T02:29:48;100756.09;;;18.74;100.00
42621;BME280;28252;53.336;-6.298;2023-12-22T02:31:14;100751.56;;;18.75;100.00
42621;BME280;28252;53.336;-6.298;2023-12-22T02:31:47;100754.13;;;18.76;100.00
42621;BME280;28252;53.336;-6.298;2023-12-22T02:32:23;100750.56;;;18.76;100.00
42621;BME280;28252;53.336;-6.298;2023-12-22T02:32:56;100750.41;;;18.77;100.00
42621;BME280;28252;53.336;-6.298;2023-12-22T02:33:28;100754.13;;;18.76;100.00
42621;BME280;28252;53.336;-6.298;2023-12-22T02:34:04;100745.84;;;18.78;100.00
42621;BME280;28252;53.336;-6.298;2023-12-22T02:34:41;100747.69;;;18.77;100.00
42621;BME280;28252;53.336;-6.298;2023-12-22T02:35:16;100760.19;;;18.78;100.00
42621;BME280;28252;53.336;-6.298;2023-12-22T02:35:49;100747.53;;;18.79;100.00
42621;BME280;28252;53.336;-6.298;2023-12-22T02:36:20;100749.25;;;18.80;100.00
42621;BME280;28252;53.336;-6.298;2023-12-22T02:36:52;100755.47;;;18.80;100.00
42621;BME280;28252;53.336;-6.298;2023-12-22T02:37:25;100764.56;;;18.79;100.00
42621;BME280;28252;53.336;-6.298;2023-12-22T02:37:58;100761.72;;;18.81;100.00
42621;BME280;28252;53.336;-6.298;2023-12-22T02:38:34;100752.63;;;18.82;100.00
42621;BME280;28252;53.336;-6.298;2023-12-22T02:39:08;100782.19;;;18.83;100.00
42621;BME280;28252;53.336;-6.298;2023-12-22T02:39:41;100758.91;;;18.82;100.00
42621;BME280;28252;53.336;-6.298;2023-12-22T02:40:16;100766.00;;;18.83;100.00
42621;BME280;28252;53.336;-6.298;2023-12-22T02:40:50;100767.66;;;18.84;100.00
42621;BME280;28252;53.336;-6.298;2023-12-22T02:41:22;100769.38;;;18.85;100.00
42621;BME280;28252;53.336;-6.298;2023-12-22T02:41:53;100766.66;;;18.85;100.00
42621;BME280;28252;53.336;-6.298;2023-12-22T02:42:29;100741.41;;;18.87;100.00
42621;BME280;28252;53.336;-6.298;2023-12-22T02:43:05;100774.47;;;18.89;100.00
42621;BME280;28252;53.336;-6.298;2023-12-22T02:43:40;100770.72;;;18.90;100.00
42621;BME280;28252;53.336;-6.298;2023-12-22T02:44:13;100768.91;;;18.90;100.00
42621;BME280;28252;53.336;-6.298;2023-12-22T02:44:48;100767.03;;;18.91;100.00
42621;BME280;28252;53.336;-6.298;2023-12-22T02:45:27;100775.97;;;18.91;100.00
42621;BME280;28252;53.336;-6.298;2023-12-22T02:45:58;100774.97;;;18.92;100.00
42621;BME280;28252;53.336;-6.298;2023-12-22T02:46:32;100783.91;;;18.93;100.00
42621;BME280;28252;53.336;-6.298;2023-12-22T02:47:05;100779.34;;;18.93;100.00
42621;BME280;28252;53.336;-6.298;2023-12-22T02:47:36;100787.28;;;18.95;100.00
42621;BME280;28252;53.336;-6.298;2023-12-22T02:48:11;100774.81;;;18.94;100.00
42621;BME280;28252;53.336;-6.298;2023-12-22T02:48:45;100779.19;;;18.95;100.00
42621;BME280;28252;53.336;-6.298;2023-12-22T02:49:22;100775.50;;;18.96;100.00
42621;BME280;28252;53.336;-6.298;2023-12-22T02:49:56;100776.34;;;18.96;100.00
42621;BME280;28252;53.336;-6.298;2023-12-22T02:50:27;100775.50;;;18.96;100.00
42621;BME280;28252;53.336;-6.298;2023-12-22T02:50:58;100761.84;;;18.97;100.00
42621;BME280;28252;53.336;-6.298;2023-12-22T02:51:30;100776.34;;;18.96;100.00
42621;BME280;28252;53.336;-6.298;2023-12-22T02:52:05;100776.19;;;18.98;100.00
42621;BME280;28252;53.336;-6.298;2023-12-22T02:52:42;100770.78;;;18.98;100.00
42621;BME280;28252;53.336;-6.298;2023-12-22T02:53:16;100773.47;;;18.98;100.00
42621;BME280;28252;53.336;-6.298;2023-12-22T02:53:49;100783.28;;;18.99;100.00
42621;BME280;28252;53.336;-6.298;2023-12-22T02:57:50;100788.22;;;19.03;100.00
42621;BME280;28252;53.336;-6.298;2023-12-22T02:58:22;100786.34;;;19.04;100.00
42621;BME280;28252;53.336;-6.298;2023-12-22T02:58:58;100781.94;;;19.03;100.00
42621;BME280;28252;53.336;-6.298;2023-12-22T02:59:29;100783.66;;;19.04;100.00
42621;BME280;28252;53.336;-6.298;2023-12-22T03:00:00;100791.59;;;19.06;100.00
42621;BME280;28252;53.336;-6.298;2023-12-22T03:00:34;100780.78;;;19.06;100.00
42621;BME280;28252;53.336;-6.298;2023-12-22T03:01:05;100774.38;;;19.07;100.00
42621;BME280;28252;53.336;-6.298;2023-12-22T03:01:36;100785.00;;;19.08;100.00
42621;BME280;28252;53.336;-6.298;2023-12-22T03:02:09;100784.19;;;19.08;100.00
42621;BME280;28252;53.336;-6.298;2023-12-22T03:02:41;100779.59;;;19.08;100.00
42621;BME280;28252;53.336;-6.298;2023-12-22T03:03:12;100767.81;;;19.09;100.00
42621;BME280;28252;53.336;-6.298;2023-12-22T03:03:44;100781.31;;;19.09;100.00
42621;BME280;28252;53.336;-6.298;2023-12-22T03:04:18;100778.63;;;19.09;100.00
42621;BME280;28252;53.336;-6.298;2023-12-22T03:04:51;100772.19;;;19.10;100.00
42621;BME280;28252;53.336;-6.298;2023-12-22T03:05:25;100777.44;;;19.12;100.00
42621;BME280;28252;53.336;-6.298;2023-12-22T03:05:56;100789.09;;;19.12;100.00
42621;BME280;28252;53.336;-6.298;2023-12-22T03:06:27;100777.28;;;19.13;100.00
42621;BME280;28252;53.336;-6.298;2023-12-22T03:06:58;100767.50;;;19.12;100.00
42621;BME280;28252;53.336;-6.298;2023-12-22T03:07:29;100784.38;;;19.14;100.00
42621;BME280;28252;53.336;-6.298;2023-12-22T03:08:01;100779.81;;;19.15;100.00
42621;BME280;28252;53.336;-6.298;2023-12-22T03:08:34;100775.25;;;19.15;100.00
42621;BME280;28252;53.336;-6.298;2023-12-22T03:09:05;100768.19;;;19.14;100.00
42621;BME280;28252;53.336;-6.298;2023-12-22T03:09:37;100779.66;;;19.16;100.00
42621;BME280;28252;53.336;-6.298;2023-12-22T03:10:08;100782.34;;;19.16;100.00
42621;BME280;28252;53.336;-6.298;2023-12-22T03:10:39;100778.97;;;19.14;100.00
42621;BME280;28252;53.336;-6.298;2023-12-22T03:11:10;100777.94;;;19.15;100.00
42621;BME280;28252;53.336;-6.298;2023-12-22T03:11:42;100786.91;;;19.16;100.00
42621;BME280;28252;53.336;-6.298;2023-12-22T03:12:13;100782.34;;;19.16;100.00
42621;BME280;28252;53.336;-6.298;2023-12-22T03:12:44;100787.75;;;19.16;100.00
42621;BME280;28252;53.336;-6.298;2023-12-22T03:13:15;100786.91;;;19.16;100.00
42621;BME280;28252;53.336;-6.298;2023-12-22T03:13:48;100788.59;;;19.17;100.00
42621;BME280;28252;53.336;-6.298;2023-12-22T03:14:20;100787.75;;;19.16;100.00
42621;BME280;28252;53.336;-6.298;2023-12-22T03:14:51;100788.59;;;19.17;100.00